메인 페이지
METAR-TAF:

METAR-TAF

공항 :

누악쇼트, 모리타니

위도: 18-18-36N, 경도: 015-58-11W, 고도: 3m

현재 날씨관측

예보는 20분 전, 09:30시(UTC)에 발표되었습니다.
북동7kt
온도 15°C
습도 67%
기압 1019 hPa
시정: 6000m

METAR: GQNO 180930Z 04007KT 6000 NSC 15/09 Q1019 NOSIG

시각: 09:50 (09:50 UTC)

예보

예보는 4 시간 50분 전, 05:00시(UTC)에 발표되었습니다.
예보 대상 시간: 18일 06시부터 19일 12시까지 (UTC)
북동8kt
시정: 6000m
일시적
18일 09시부터 18일 17시까지 (UTC)
북동15kt
시정: 4000m
날린먼지

TAF: GQNO 180500Z 1806/1912 04008KT 6000 NSC TEMPO 1809/1817 04015KT 4000 BLDU

4,000개 이상의 공항 관측 자료 및 예보 (METAR 및 TAF 보고).

지도상에서 검색 가능한 기상관측소가 노란 점과 빨간 점으로 표시되어 있습니다.

기상관측소 명을 보려면 표시 위로 마우스를 이동하세요.

날씨 관측과 예보를 보려면 클릭하세요.

지도 변경 : 확대하려면 엑스 표시가 있는 녹색 버튼, 축소하려면 빼기 표시가 있는 녹색 버튼, 다음 페이지의 지도를 보려면 녹색 화살표를 클릭하세요.


METAR-TAF: